createdAt,value
2022-07-26T00:01:52.717Z,96815.38
2022-07-26T00:04:24.064Z,96815.84
2022-07-26T00:06:55.295Z,96815.94
2022-07-26T00:09:26.486Z,96810.90
2022-07-26T00:11:57.350Z,96813.90
2022-07-26T00:14:28.631Z,96810.48
2022-07-26T00:16:59.793Z,96813.39
2022-07-26T00:19:31.242Z,96808.39
2022-07-26T00:22:19.550Z,96814.50
2022-07-26T00:24:50.502Z,96801.16
2022-07-26T00:27:22.517Z,96801.74
2022-07-26T00:29:53.477Z,96797.94
2022-07-26T00:32:24.444Z,96798.16
2022-07-26T00:34:55.395Z,96798.54
2022-07-26T00:37:26.502Z,96800.48
2022-07-26T00:39:57.470Z,96792.95
2022-07-26T00:42:28.465Z,96795.33
2022-07-26T00:44:59.558Z,96797.35
2022-07-26T00:47:30.651Z,96795.77
2022-07-26T00:50:01.817Z,96798.98
2022-07-26T00:52:32.781Z,96794.36
2022-07-26T00:55:04.844Z,96796.09
2022-07-26T00:57:36.032Z,96807.43
2022-07-26T01:00:08.439Z,96815.63
2022-07-26T01:02:39.354Z,96817.88
2022-07-26T01:05:11.408Z,96821.08
2022-07-26T01:07:43.055Z,96826.74
2022-07-26T01:10:14.886Z,96824.51
2022-07-26T01:12:46.388Z,96836.80
2022-07-26T01:15:18.373Z,96846.20
2022-07-26T01:17:49.314Z,96852.70
2022-07-26T01:20:20.371Z,96851.05
2022-07-26T01:22:55.148Z,96856.94
2022-07-26T01:25:33.540Z,96851.20
2022-07-26T01:28:19.712Z,96843.08
2022-07-26T01:30:51.335Z,96839.35
2022-07-26T01:33:22.695Z,96843.68
2022-07-26T01:35:53.919Z,96849.42
2022-07-26T01:38:24.918Z,96842.69
2022-07-26T01:40:56.277Z,96846.50
2022-07-26T01:43:27.900Z,96839.48
2022-07-26T01:45:59.006Z,96847.91
2022-07-26T01:48:44.150Z,96842.99
2022-07-26T01:51:15.617Z,96841.58
2022-07-26T01:53:47.556Z,96847.91
2022-07-26T01:56:18.408Z,96855.29
2022-07-26T01:58:49.807Z,96853.34
2022-07-26T02:01:38.895Z,96853.41
2022-07-26T02:04:32.139Z,96855.89
2022-07-26T02:07:05.593Z,96857.00
2022-07-26T02:09:44.154Z,96861.76
2022-07-26T02:12:15.071Z,96858.05
2022-07-26T02:14:45.947Z,96861.98
2022-07-26T02:17:17.388Z,96860.05
2022-07-26T02:19:48.296Z,96868.77
2022-07-26T02:22:19.968Z,96868.05
2022-07-26T02:24:51.049Z,96872.26
2022-07-26T02:27:22.013Z,96868.30
2022-07-26T02:29:52.988Z,96871.44
2022-07-26T02:32:23.876Z,96867.39
2022-07-26T02:34:54.938Z,96869.45
2022-07-26T02:37:26.185Z,96872.20
2022-07-26T02:39:57.045Z,96863.56
2022-07-26T02:42:28.143Z,96872.48
2022-07-26T02:44:58.980Z,96880.91
2022-07-26T02:47:30.534Z,96885.64
2022-07-26T02:50:01.408Z,96897.71
2022-07-26T02:52:32.341Z,96903.31
2022-07-26T02:55:03.391Z,96911.73
2022-07-26T02:57:45.265Z,96918.16
2022-07-26T03:00:17.013Z,96931.67
2022-07-26T03:03:08.103Z,96934.59
2022-07-26T03:05:39.180Z,96941.63
2022-07-26T03:08:10.580Z,96941.45
2022-07-26T03:10:41.918Z,96942.73
2022-07-26T03:13:12.757Z,96945.81
2022-07-26T03:15:43.957Z,96953.52
2022-07-26T03:18:14.979Z,96952.48
2022-07-26T03:20:59.706Z,96961.23
2022-07-26T03:23:33.533Z,96955.26
2022-07-26T03:26:05.079Z,96953.19
2022-07-26T03:28:36.503Z,96959.12
2022-07-26T03:31:07.756Z,96962.22
2022-07-26T03:33:38.957Z,96973.32
2022-07-26T03:36:11.501Z,96972.36
2022-07-26T03:38:46.598Z,96985.04
2022-07-26T03:41:17.644Z,96988.07
2022-07-26T03:43:48.855Z,97002.83
2022-07-26T03:46:20.120Z,97008.83
2022-07-26T03:48:51.327Z,97020.59
2022-07-26T03:51:22.239Z,97004.53
2022-07-26T03:53:53.003Z,97016.52
2022-07-26T03:56:40.449Z,97010.93
2022-07-26T03:59:12.680Z,97015.52
2022-07-26T04:01:44.999Z,97025.44
2022-07-26T04:04:18.553Z,97022.21
2022-07-26T04:07:10.078Z,97039.92
2022-07-26T04:09:43.885Z,97048.86
2022-07-26T04:12:15.132Z,97042.00
2022-07-26T04:14:46.093Z,97047.02
2022-07-26T04:17:17.296Z,97045.30
2022-07-26T04:19:48.400Z,97057.64
2022-07-26T04:22:19.601Z,97061.92
2022-07-26T04:24:50.573Z,97073.46
2022-07-26T04:27:21.584Z,97077.36
2022-07-26T04:29:52.501Z,97073.71
2022-07-26T04:32:23.786Z,97086.34
2022-07-26T04:34:55.173Z,97089.85
2022-07-26T04:37:26.279Z,97093.14
2022-07-26T04:39:57.244Z,97096.73
2022-07-26T04:42:28.200Z,97094.64
2022-07-26T04:45:02.015Z,97097.33
2022-07-26T04:47:35.610Z,97102.80
2022-07-26T04:50:09.289Z,97112.90
2022-07-26T04:52:40.619Z,97119.02
2022-07-26T04:55:12.897Z,97123.81
2022-07-26T04:57:44.248Z,97124.27
2022-07-26T05:00:24.879Z,97131.42
2022-07-26T05:02:59.392Z,97135.90
2022-07-26T05:05:32.778Z,97137.61
2022-07-26T05:08:05.482Z,97141.94
2022-07-26T05:10:38.157Z,97147.61
2022-07-26T05:13:09.312Z,97151.41
2022-07-26T05:15:40.389Z,97148.54
2022-07-26T05:18:13.879Z,97150.84
2022-07-26T05:20:44.939Z,97155.77
2022-07-26T05:23:16.841Z,97163.83
2022-07-26T05:25:48.092Z,97163.20
2022-07-26T05:28:19.076Z,97164.53
2022-07-26T05:30:49.824Z,97166.75
2022-07-26T05:33:21.067Z,97172.48
2022-07-26T05:35:52.086Z,97170.77
2022-07-26T05:38:22.918Z,97169.27
2022-07-26T05:40:53.961Z,97167.45
2022-07-26T05:43:26.143Z,97167.29
2022-07-26T05:45:58.992Z,97176.26
2022-07-26T05:48:31.059Z,97173.41
2022-07-26T05:51:02.010Z,97176.89
2022-07-26T05:53:33.367Z,97175.28
2022-07-26T05:56:04.892Z,97185.94
2022-07-26T05:58:35.901Z,97191.67
2022-07-26T06:01:07.062Z,97189.76
2022-07-26T06:03:37.945Z,97194.16
2022-07-26T06:06:09.777Z,97193.45
2022-07-26T06:08:40.794Z,97198.48
2022-07-26T06:11:11.744Z,97201.38
2022-07-26T06:14:02.443Z,97202.70
2022-07-26T06:16:33.633Z,97205.90
2022-07-26T06:19:04.850Z,97214.86
2022-07-26T06:21:35.718Z,97212.30
2022-07-26T06:24:08.157Z,97216.39
2022-07-26T06:26:39.568Z,97217.73
2022-07-26T06:29:10.678Z,97218.35
2022-07-26T06:31:41.894Z,97222.85
2022-07-26T06:34:13.067Z,97227.27
2022-07-26T06:36:58.161Z,97234.41
2022-07-26T06:39:28.991Z,97235.95
2022-07-26T06:41:59.972Z,97243.41
2022-07-26T06:44:30.913Z,97250.52
2022-07-26T06:47:01.898Z,97254.36
2022-07-26T06:49:32.840Z,97257.30
2022-07-26T06:52:04.232Z,97263.77
2022-07-26T06:54:35.153Z,97259.70
2022-07-26T06:57:06.299Z,97269.59
2022-07-26T06:59:37.309Z,97271.27
2022-07-26T07:02:08.581Z,97277.10
2022-07-26T07:04:39.582Z,97281.90
2022-07-26T07:07:10.420Z,97274.40
2022-07-26T07:09:42.994Z,97276.92
2022-07-26T07:12:15.423Z,97279.67
2022-07-26T07:14:46.379Z,97279.06
2022-07-26T07:17:21.210Z,97275.25
2022-07-26T07:19:52.179Z,97279.10
2022-07-26T07:22:23.085Z,97279.85
2022-07-26T07:24:53.958Z,97282.30
2022-07-26T07:27:24.813Z,97279.05
2022-07-26T07:29:58.295Z,97272.10
2022-07-26T07:32:29.377Z,97267.45
2022-07-26T07:35:00.384Z,97267.21
2022-07-26T07:37:52.823Z,97268.81
2022-07-26T07:40:22.688Z,97273.27
2022-07-26T07:42:53.846Z,97272.83
2022-07-26T07:45:25.213Z,97276.08
2022-07-26T07:47:56.825Z,97273.33
2022-07-26T07:50:28.492Z,97276.55
2022-07-26T07:52:59.712Z,97276.95
2022-07-26T07:55:40.634Z,97279.42
2022-07-26T07:58:14.507Z,97282.41
2022-07-26T08:00:46.784Z,97293.11
2022-07-26T08:03:19.427Z,97287.67
2022-07-26T08:05:51.082Z,97295.80
2022-07-26T08:08:22.964Z,97294.47
2022-07-26T08:10:54.568Z,97294.53
2022-07-26T08:13:27.850Z,97298.41
2022-07-26T08:15:59.578Z,97289.42
2022-07-26T08:18:32.066Z,97299.61
2022-07-26T08:21:04.555Z,97308.17
2022-07-26T08:23:35.486Z,97309.56
2022-07-26T08:26:07.052Z,97311.44
2022-07-26T08:28:47.531Z,97312.60
2022-07-26T08:31:21.132Z,97319.23
2022-07-26T08:33:52.397Z,97317.14
2022-07-26T08:36:23.981Z,97319.13
2022-07-26T08:38:55.120Z,97320.86
2022-07-26T08:41:25.994Z,97318.02
2022-07-26T08:44:05.258Z,97314.02
2022-07-26T08:46:38.566Z,97311.98
2022-07-26T08:49:11.315Z,97311.71
2022-07-26T08:51:44.287Z,97306.88
2022-07-26T08:54:16.707Z,97305.35
2022-07-26T08:56:54.251Z,97302.02
2022-07-26T08:59:25.223Z,97299.02
2022-07-26T09:02:00.198Z,97300.62
2022-07-26T09:04:36.301Z,97304.29
2022-07-26T09:07:11.767Z,97304.17
2022-07-26T09:09:59.495Z,97309.48
2022-07-26T09:12:32.559Z,97311.71
2022-07-26T09:15:06.650Z,97314.65
2022-07-26T09:17:46.095Z,97320.59
2022-07-26T09:20:24.394Z,97320.64
2022-07-26T09:23:02.152Z,97319.38
2022-07-26T09:25:32.897Z,97323.75
2022-07-26T09:28:04.590Z,97322.33
2022-07-26T09:30:35.513Z,97323.29
2022-07-26T09:33:22.017Z,97323.23
2022-07-26T09:36:05.668Z,97318.60
2022-07-26T09:39:04.169Z,97314.15
2022-07-26T09:41:37.265Z,97317.88
2022-07-26T09:44:20.776Z,97317.77
2022-07-26T09:46:57.279Z,97321.35
2022-07-26T09:49:40.138Z,97329.04
2022-07-26T09:52:19.429Z,97321.80
2022-07-26T09:54:51.333Z,97318.00
2022-07-26T09:57:22.841Z,97320.05
2022-07-26T09:59:54.099Z,97319.91
2022-07-26T10:02:25.071Z,97325.59
2022-07-26T10:04:56.087Z,97332.65
2022-07-26T10:07:27.289Z,97329.64
2022-07-26T10:10:03.686Z,97327.48
2022-07-26T10:12:34.009Z,97323.68
2022-07-26T10:15:05.356Z,97320.37
2022-07-26T10:17:43.900Z,97323.06
2022-07-26T10:20:48.325Z,97326.77
2022-07-26T10:23:43.429Z,97326.46
2022-07-26T10:26:32.635Z,97326.42
2022-07-26T10:29:25.841Z,97324.95
2022-07-26T10:32:21.471Z,97324.81
2022-07-26T10:34:52.658Z,97322.50
2022-07-26T10:37:29.744Z,97330.41
2022-07-26T10:40:19.979Z,97327.02
2022-07-26T10:42:52.734Z,97334.59
2022-07-26T10:45:45.453Z,97324.98
2022-07-26T10:48:24.657Z,97326.09
2022-07-26T10:50:56.565Z,97329.39
2022-07-26T10:53:28.423Z,97336.98
2022-07-26T10:56:01.546Z,97340.64
2022-07-26T10:58:44.483Z,97335.58
2022-07-26T11:01:15.740Z,97338.69
2022-07-26T11:03:46.994Z,97342.59
2022-07-26T11:06:19.733Z,97338.61
2022-07-26T11:08:50.865Z,97335.57
2022-07-26T11:11:33.372Z,97342.34
2022-07-26T11:14:09.702Z,97340.09
2022-07-26T11:16:42.441Z,97345.42
2022-07-26T11:19:18.498Z,97348.59
2022-07-26T11:21:55.090Z,97342.89
2022-07-26T11:24:26.936Z,97343.60
2022-07-26T11:27:04.642Z,97338.10
2022-07-26T11:29:40.511Z,97334.91
2022-07-26T11:32:22.518Z,97336.81
2022-07-26T11:35:02.369Z,97339.22
2022-07-26T11:37:33.198Z,97342.00
2022-07-26T11:40:04.421Z,97336.84
2022-07-26T11:42:35.441Z,97334.98
2022-07-26T11:45:10.485Z,97333.30
2022-07-26T11:47:41.287Z,97334.67
2022-07-26T11:50:20.011Z,97339.23
2022-07-26T11:52:53.902Z,97336.92
2022-07-26T11:55:30.637Z,97332.76
2022-07-26T11:58:07.442Z,97324.80
2022-07-26T12:00:39.055Z,97324.05
2022-07-26T12:03:10.266Z,97322.20
2022-07-26T12:05:42.146Z,97316.87
2022-07-26T12:08:13.506Z,97311.77
2022-07-26T12:10:44.648Z,97306.10
2022-07-26T12:13:17.058Z,97305.58
2022-07-26T12:15:50.154Z,97300.11
2022-07-26T12:18:29.386Z,97302.82
2022-07-26T12:21:05.565Z,97310.80
2022-07-26T12:23:49.895Z,97304.92
2022-07-26T12:26:26.260Z,97300.56
2022-07-26T12:28:58.497Z,97305.80
2022-07-26T12:31:50.976Z,97309.98
2022-07-26T12:34:25.429Z,97304.30
2022-07-26T12:36:56.700Z,97298.19
2022-07-26T12:39:27.638Z,97303.33
2022-07-26T12:41:58.664Z,97304.23
2022-07-26T12:44:29.708Z,97307.73
2022-07-26T12:47:00.469Z,97302.41
2022-07-26T12:49:31.785Z,97297.39
2022-07-26T12:52:03.014Z,97293.67
2022-07-26T12:54:34.165Z,97288.75
2022-07-26T12:57:05.160Z,97288.70
2022-07-26T12:59:39.554Z,97279.13
2022-07-26T13:02:13.901Z,97280.73
2022-07-26T13:04:45.561Z,97265.89
2022-07-26T13:07:18.122Z,97262.73
2022-07-26T13:10:03.049Z,97272.16
2022-07-26T13:12:42.063Z,97269.30
2022-07-26T13:15:14.069Z,97267.95
2022-07-26T13:17:44.980Z,97272.02
2022-07-26T13:20:17.234Z,97270.19
2022-07-26T13:22:48.406Z,97269.24
2022-07-26T13:25:21.446Z,97276.33
2022-07-26T13:27:53.607Z,97268.09
2022-07-26T13:30:24.438Z,97262.00
2022-07-26T13:32:55.670Z,97261.15
2022-07-26T13:35:26.750Z,97265.02
2022-07-26T13:37:57.773Z,97257.40
2022-07-26T13:40:31.791Z,97265.83
2022-07-26T13:43:03.374Z,97254.09
2022-07-26T13:45:34.479Z,97261.25
2022-07-26T13:48:05.940Z,97256.67
2022-07-26T13:50:36.991Z,97250.33
2022-07-26T13:53:08.129Z,97253.11
2022-07-26T13:55:39.041Z,97257.73
2022-07-26T13:58:10.544Z,97265.31
2022-07-26T14:00:42.746Z,97277.05
2022-07-26T14:03:14.039Z,97277.70
2022-07-26T14:05:45.211Z,97280.52
2022-07-26T14:08:16.326Z,97281.31
2022-07-26T14:10:47.364Z,97282.29
2022-07-26T14:13:18.459Z,97280.73
2022-07-26T14:15:49.044Z,97279.20
2022-07-26T14:18:20.147Z,97274.02
2022-07-26T14:20:50.992Z,97273.05
2022-07-26T14:23:21.909Z,97275.68
2022-07-26T14:25:53.099Z,97273.60
2022-07-26T14:28:24.212Z,97273.98
2022-07-26T14:30:55.140Z,97278.45
2022-07-26T14:33:26.182Z,97278.67
2022-07-26T14:35:57.022Z,97279.94
2022-07-26T14:38:30.137Z,97280.67
2022-07-26T14:41:01.824Z,97279.09
2022-07-26T14:43:32.982Z,97286.66
2022-07-26T14:46:04.041Z,97287.64
2022-07-26T14:48:53.420Z,97278.80
2022-07-26T14:51:25.814Z,97275.91
2022-07-26T14:53:56.854Z,97271.23
2022-07-26T14:56:27.645Z,97274.10
2022-07-26T14:58:58.501Z,97276.98
2022-07-26T15:01:29.251Z,97278.70
2022-07-26T15:04:00.370Z,97270.27
2022-07-26T15:06:31.811Z,97262.73
2022-07-26T15:09:03.311Z,97263.08
2022-07-26T15:11:35.292Z,97261.59
2022-07-26T15:14:07.323Z,97262.56
2022-07-26T15:16:38.614Z,97266.05
2022-07-26T15:19:09.669Z,97262.11
2022-07-26T15:21:40.803Z,97261.15
2022-07-26T15:24:14.252Z,97261.25
2022-07-26T15:26:46.877Z,97266.41
2022-07-26T15:29:18.211Z,97267.25
2022-07-26T15:31:52.150Z,97269.08
2022-07-26T15:34:23.072Z,97262.36
2022-07-26T15:36:54.687Z,97257.26
2022-07-26T15:39:25.577Z,97260.85
2022-07-26T15:41:59.479Z,97261.53
2022-07-26T15:44:33.601Z,97259.17
2022-07-26T15:47:05.407Z,97256.64
2022-07-26T15:49:40.851Z,97260.73
2022-07-26T15:52:13.280Z,97256.63
2022-07-26T15:54:46.100Z,97257.42
2022-07-26T15:57:18.921Z,97258.50
2022-07-26T15:59:49.827Z,97258.94
2022-07-26T16:02:20.966Z,97267.09
2022-07-26T16:04:52.099Z,97264.00
2022-07-26T16:07:22.984Z,97257.98
2022-07-26T16:09:53.914Z,97252.65
2022-07-26T16:12:25.020Z,97254.08
2022-07-26T16:14:56.009Z,97247.11
2022-07-26T16:17:27.219Z,97250.85
2022-07-26T16:19:58.284Z,97255.63
2022-07-26T16:22:33.152Z,97256.14
2022-07-26T16:25:08.218Z,97251.05
2022-07-26T16:27:39.149Z,97257.06
2022-07-26T16:30:12.064Z,97253.67
2022-07-26T16:32:43.228Z,97260.37
2022-07-26T16:35:14.911Z,97256.45
2022-07-26T16:37:45.839Z,97259.90
2022-07-26T16:40:16.921Z,97261.05
2022-07-26T16:42:47.868Z,97259.61
2022-07-26T16:45:18.779Z,97258.41
2022-07-26T16:47:49.744Z,97260.55
2022-07-26T16:50:24.964Z,97261.80
2022-07-26T16:52:58.634Z,97264.73
2022-07-26T16:55:29.959Z,97272.73
2022-07-26T16:58:00.887Z,97274.46
2022-07-26T17:00:32.074Z,97274.52
2022-07-26T17:03:03.147Z,97278.33
2022-07-26T17:05:34.242Z,97283.09
2022-07-26T17:08:05.588Z,97285.58
2022-07-26T17:10:36.430Z,97283.23
2022-07-26T17:13:07.510Z,97287.85
2022-07-26T17:15:38.370Z,97291.49
2022-07-26T17:18:09.516Z,97294.05
2022-07-26T17:20:40.321Z,97295.52
2022-07-26T17:23:11.366Z,97296.23
2022-07-26T17:25:42.368Z,97294.55
2022-07-26T17:28:13.490Z,97295.59
2022-07-26T17:30:44.503Z,97296.43
2022-07-26T17:33:15.501Z,97302.49
2022-07-26T17:35:46.472Z,97303.20
2022-07-26T17:38:17.545Z,97305.12
2022-07-26T17:40:48.743Z,97302.51
2022-07-26T17:43:19.994Z,97305.19
2022-07-26T17:45:51.051Z,97307.90
2022-07-26T17:48:21.757Z,97306.67
2022-07-26T17:50:52.910Z,97305.73
2022-07-26T17:53:34.098Z,97310.84
2022-07-26T17:56:06.045Z,97310.89
2022-07-26T17:58:36.959Z,97314.80
2022-07-26T18:01:08.257Z,97311.61
2022-07-26T18:03:39.262Z,97313.38
2022-07-26T18:06:10.629Z,97313.76
2022-07-26T18:08:41.620Z,97315.38
2022-07-26T18:11:12.885Z,97318.69
2022-07-26T18:13:43.863Z,97322.98
2022-07-26T18:16:14.986Z,97320.12
2022-07-26T18:18:45.933Z,97319.96
2022-07-26T18:21:17.067Z,97321.14
2022-07-26T18:24:14.420Z,97322.13
2022-07-26T18:26:40.183Z,97323.88
2022-07-26T18:29:11.745Z,97320.30
2022-07-26T18:31:43.194Z,97320.46
2022-07-26T18:34:13.968Z,97324.85
2022-07-26T18:36:45.131Z,97326.27
2022-07-26T18:39:16.175Z,97327.40
2022-07-26T18:41:47.039Z,97329.04
2022-07-26T18:44:18.206Z,97331.02
2022-07-26T18:46:49.343Z,97332.73
2022-07-26T18:49:21.187Z,97339.36
2022-07-26T18:51:52.303Z,97340.55
2022-07-26T18:54:24.004Z,97347.60
2022-07-26T18:56:55.312Z,97348.08
2022-07-26T18:59:26.260Z,97347.43
2022-07-26T19:01:59.146Z,97349.45
2022-07-26T19:04:30.538Z,97354.31
2022-07-26T19:07:01.827Z,97358.81
2022-07-26T19:09:32.875Z,97356.48
2022-07-26T19:12:03.799Z,97362.74
2022-07-26T19:14:34.877Z,97367.80
2022-07-26T19:17:09.890Z,97372.25
2022-07-26T19:19:42.984Z,97373.30
2022-07-26T19:22:14.107Z,97376.11
2022-07-26T19:24:45.070Z,97380.17
2022-07-26T19:27:16.277Z,97391.86
2022-07-26T19:29:48.698Z,97393.95
2022-07-26T19:32:19.768Z,97394.48
2022-07-26T19:34:50.829Z,97399.17
2022-07-26T19:37:22.720Z,97397.23
2022-07-26T19:39:55.751Z,97397.27
2022-07-26T19:42:26.508Z,97400.77
2022-07-26T19:44:57.370Z,97407.13
2022-07-26T19:47:29.895Z,97406.30
2022-07-26T19:50:00.895Z,97405.78
2022-07-26T19:52:33.611Z,97404.96
2022-07-26T19:55:04.943Z,97399.96
2022-07-26T19:57:36.336Z,97397.98
2022-07-26T20:00:10.439Z,97399.48
2022-07-26T20:02:41.728Z,97400.15
2022-07-26T20:05:13.849Z,97402.23
2022-07-26T20:07:44.777Z,97397.30
2022-07-26T20:10:15.852Z,97402.17
2022-07-26T20:12:46.687Z,97404.31
2022-07-26T20:15:17.667Z,97400.11
2022-07-26T20:17:48.691Z,97400.41
2022-07-26T20:20:20.075Z,97407.44
2022-07-26T20:22:51.157Z,97406.38
2022-07-26T20:25:22.585Z,97409.36
2022-07-26T20:27:54.445Z,97409.64
2022-07-26T20:30:28.512Z,97415.90
2022-07-26T20:32:59.405Z,97411.11
2022-07-26T20:35:31.412Z,97409.69
2022-07-26T20:38:02.375Z,97415.65
2022-07-26T20:40:33.716Z,97422.06
2022-07-26T20:43:05.400Z,97420.73
2022-07-26T20:45:37.318Z,97425.88
2022-07-26T20:48:09.541Z,97429.54
2022-07-26T20:50:40.855Z,97428.23
2022-07-26T20:53:11.790Z,97430.61
2022-07-26T20:55:42.976Z,97434.63
2022-07-26T20:58:13.954Z,97437.06
2022-07-26T21:00:45.274Z,97437.27
2022-07-26T21:03:16.882Z,97437.10
2022-07-26T21:05:48.056Z,97433.26
2022-07-26T21:08:18.953Z,97433.73
2022-07-26T21:10:49.903Z,97434.49
2022-07-26T21:13:20.977Z,97437.59
2022-07-26T21:15:53.430Z,97435.27
2022-07-26T21:18:25.930Z,97441.28
2022-07-26T21:20:56.969Z,97444.33
2022-07-26T21:23:29.044Z,97449.82
2022-07-26T21:26:00.592Z,97449.05
2022-07-26T21:28:32.312Z,97451.11
2022-07-26T21:31:03.278Z,97456.63
2022-07-26T21:33:34.357Z,97458.86
2022-07-26T21:36:05.601Z,97461.52
2022-07-26T21:38:36.888Z,97464.55
2022-07-26T21:41:07.825Z,97466.04
2022-07-26T21:43:38.793Z,97464.63
2022-07-26T21:46:12.662Z,97467.29
2022-07-26T21:48:44.153Z,97467.94
2022-07-26T21:51:15.267Z,97471.65
2022-07-26T21:53:46.340Z,97470.20
2022-07-26T21:56:17.336Z,97467.27
2022-07-26T21:58:48.574Z,97469.48
2022-07-26T22:01:19.702Z,97465.89
2022-07-26T22:03:50.913Z,97462.28
2022-07-26T22:06:21.908Z,97461.65
2022-07-26T22:08:52.696Z,97469.30
2022-07-26T22:11:23.941Z,97469.05
2022-07-26T22:13:55.359Z,97462.48
2022-07-26T22:16:26.346Z,97462.92
2022-07-26T22:18:57.223Z,97467.59
2022-07-26T22:21:29.054Z,97472.71
2022-07-26T22:23:59.981Z,97472.73
2022-07-26T22:26:31.315Z,97470.69
2022-07-26T22:29:02.394Z,97471.75
2022-07-26T22:31:33.743Z,97474.52
2022-07-26T22:34:04.838Z,97475.02
2022-07-26T22:36:35.743Z,97474.60
2022-07-26T22:39:06.811Z,97469.38
2022-07-26T22:42:05.062Z,97468.75
2022-07-26T22:44:31.289Z,97463.13
2022-07-26T22:47:02.171Z,97465.21
2022-07-26T22:49:33.152Z,97462.42
2022-07-26T22:52:04.241Z,97460.60
2022-07-26T22:54:35.283Z,97460.63
2022-07-26T22:57:06.385Z,97461.71
2022-07-26T22:59:37.881Z,97459.09
2022-07-26T23:02:08.962Z,97459.57
2022-07-26T23:04:40.126Z,97457.73
2022-07-26T23:07:11.219Z,97455.36
2022-07-26T23:09:43.171Z,97456.75
2022-07-26T23:12:14.255Z,97454.56
2022-07-26T23:14:45.358Z,97454.45
2022-07-26T23:17:16.301Z,97450.77
2022-07-26T23:19:47.474Z,97452.11
2022-07-26T23:22:18.387Z,97456.07
2022-07-26T23:24:49.476Z,97459.88
2022-07-26T23:27:20.503Z,97455.12
2022-07-26T23:29:51.551Z,97460.48
2022-07-26T23:32:22.558Z,97463.36
2022-07-26T23:34:53.743Z,97462.73
2022-07-26T23:37:24.686Z,97458.94
2022-07-26T23:39:56.297Z,97465.48
2022-07-26T23:42:27.298Z,97461.88
2022-07-26T23:44:58.157Z,97459.98
2022-07-26T23:47:29.182Z,97458.95
2022-07-26T23:50:00.270Z,97459.17
2022-07-26T23:52:31.243Z,97460.55
2022-07-26T23:55:02.546Z,97462.90
2022-07-26T23:57:33.821Z,97465.22
